Time;durP1;ratioP1;P1;durP2;ratioP2;P2;SDS_P1;SDS_P2;PMS_P1;PMS_P2;Temp;Humidity;BMP_temperature;BMP_pressure;BME280_temperature;BME280_humidity;BME280_pressure;Samples;Min_cycle;Max_cycle;Signal;HPM_P1;HPM_P2
2021/12/20 00:02:49;;;;;;;33.13;15.57;;;;;6.30;102295.00;;;;10474140;28;20189;-78
2021/12/20 00:07:51;;;;;;;25.90;15.50;;;;;6.30;102291.00;;;;10444034;28;20225;-79
2021/12/20 00:12:53;;;;;;;30.97;15.43;;;;;6.30;102275.00;;;;10473458;28;20200;-79
2021/12/20 00:17:55;;;;;;;34.90;15.57;;;;;6.30;102294.00;;;;10456800;28;20213;-79
2021/12/20 00:22:57;;;;;;;29.67;14.57;;;;;6.30;102266.00;;;;10479241;28;20206;-78
2021/12/20 00:28:00;;;;;;;25.53;14.50;;;;;6.30;102280.00;;;;10478579;28;20237;-79
2021/12/20 00:33:02;;;;;;;30.53;14.60;;;;;6.30;102276.00;;;;10479590;28;20210;-78
2021/12/20 00:43:26;;;;;;;24.40;13.90;;;;;6.30;102283.00;;;;10503174;28;20231;-78
2021/12/20 00:48:28;;;;;;;29.47;14.63;;;;;6.30;102272.00;;;;10453139;28;20213;-78
2021/12/20 00:53:30;;;;;;;24.47;13.53;;;;;6.30;102272.00;;;;10470365;28;20193;-78
2021/12/20 00:58:32;;;;;;;29.67;13.00;;;;;6.30;102262.00;;;;10487124;28;20178;-78
2021/12/20 01:03:34;;;;;;;27.70;14.03;;;;;6.30;102254.00;;;;10469718;28;20247;-78
2021/12/20 01:08:38;;;;;;;29.57;13.63;;;;;6.30;102259.00;;;;10498783;28;20653;-78
2021/12/20 01:13:41;;;;;;;27.83;13.70;;;;;6.30;102268.00;;;;10495349;28;20200;-78
2021/12/20 01:18:43;;;;;;;21.50;11.37;;;;;6.30;102241.00;;;;10511519;28;20238;-78
2021/12/20 01:23:45;;;;;;;23.97;11.17;;;;;6.40;102244.00;;;;10472912;28;20197;-78
2021/12/20 01:28:48;;;;;;;19.33;12.07;;;;;6.40;102251.00;;;;10463916;28;20218;-78
2021/12/20 01:33:50;;;;;;;28.17;12.00;;;;;6.40;102256.00;;;;10475739;28;20268;-79
2021/12/20 01:38:52;;;;;;;27.70;11.47;;;;;6.40;102249.00;;;;10477596;28;20206;-79
2021/12/20 01:43:54;;;;;;;22.00;10.93;;;;;6.40;102245.00;;;;10459240;28;20194;-78
2021/12/20 01:48:56;;;;;;;21.93;12.07;;;;;6.40;102239.00;;;;10460043;28;20210;-78
2021/12/20 01:53:59;;;;;;;22.33;11.27;;;;;6.40;102246.00;;;;10476430;28;20206;-78
2021/12/20 01:59:04;;;;;;;23.97;11.50;;;;;6.40;102247.00;;;;10426441;28;20278;-78
2021/12/20 02:04:08;;;;;;;24.67;11.87;;;;;6.40;102244.00;;;;10461263;28;20190;-78
2021/12/20 02:09:17;;;;;;;27.93;12.07;;;;;6.40;102255.00;;;;10444415;28;20210;-78
2021/12/20 02:14:19;;;;;;;29.03;13.03;;;;;6.40;102267.00;;;;10476634;28;20255;-78
2021/12/20 02:19:21;;;;;;;27.03;12.83;;;;;6.40;102258.00;;;;10476780;28;20190;-78
2021/12/20 02:24:23;;;;;;;27.87;14.40;;;;;6.40;102254.00;;;;10460461;28;20190;-78
2021/12/20 02:29:41;;;;;;;30.03;15.47;;;;;6.40;102260.00;;;;10443700;28;20232;-78
2021/12/20 02:40:04;;;;;;;31.23;15.50;;;;;6.40;102254.00;;;;10508718;28;20200;-78
2021/12/20 02:50:10;;;;;;;25.63;14.77;;;;;6.40;102235.00;;;;10476081;28;20258;-78
2021/12/20 02:55:12;;;;;;;17.67;9.87;;;;;6.40;102235.00;;;;10525578;28;20193;-78
2021/12/20 03:00:14;;;;;;;20.23;9.53;;;;;6.40;102243.00;;;;10525490;28;20196;-78
2021/12/20 03:05:16;;;;;;;16.13;8.87;;;;;6.40;102241.00;;;;10525162;28;20250;-78
2021/12/20 03:10:21;;;;;;;13.40;7.87;;;;;6.40;102228.00;;;;10508426;28;20212;-78
2021/12/20 03:15:27;;;;;;;15.87;4.60;;;;;6.40;102223.00;;;;10508424;28;20223;-78
2021/12/20 03:20:29;;;;;;;7.00;3.73;;;;;6.40;102226.00;;;;10491603;28;20210;-78
2021/12/20 03:25:31;;;;;;;9.10;2.80;;;;;6.40;102248.00;;;;10491382;28;20583;-78
2021/12/20 03:30:34;;;;;;;4.77;2.20;;;;;6.40;102256.00;;;;10505536;28;20237;-78
2021/12/20 03:35:36;;;;;;;4.23;1.70;;;;;6.40;102250.00;;;;10515700;28;20251;-78
2021/12/20 03:40:38;;;;;;;5.60;1.90;;;;;6.30;102251.00;;;;10468477;28;20260;-78
2021/12/20 03:45:41;;;;;;;6.93;1.70;;;;;6.30;102245.00;;;;10456771;28;20263;-78
2021/12/20 03:50:43;;;;;;;7.30;2.83;;;;;6.30;102219.00;;;;10479273;28;20213;-78
2021/12/20 03:55:46;;;;;;;5.40;1.80;;;;;6.30;102217.00;;;;10481503;28;20197;-78
2021/12/20 04:00:49;;;;;;;5.33;2.40;;;;;6.20;102219.00;;;;10464716;28;20710;-78
2021/12/20 04:05:51;;;;;;;8.07;3.50;;;;;6.20;102219.00;;;;10447024;28;20323;-77
2021/12/20 04:10:53;;;;;;;8.43;3.77;;;;;6.20;102211.00;;;;10495405;28;20246;-78
2021/12/20 04:15:55;;;;;;;7.37;3.50;;;;;6.20;102215.00;;;;10506313;28;20200;-78
2021/12/20 04:20:57;;;;;;;9.77;3.77;;;;;6.20;102220.00;;;;10522714;28;20223;-78
2021/12/20 04:25:59;;;;;;;11.40;4.53;;;;;6.20;102228.00;;;;10505590;28;20610;-78
2021/12/20 04:31:01;;;;;;;9.77;4.33;;;;;6.20;102221.00;;;;10516828;28;20244;-78
2021/12/20 04:36:03;;;;;;;8.63;3.80;;;;;6.20;102235.00;;;;10480663;28;20681;-78
2021/12/20 04:41:05;;;;;;;11.23;4.70;;;;;6.20;102227.00;;;;10463216;28;20206;-78
2021/12/20 04:46:07;;;;;;;8.50;4.53;;;;;6.20;102230.00;;;;10422480;28;20256;-78
2021/12/20 04:51:09;;;;;;;12.60;5.20;;;;;6.20;102227.00;;;;10455064;28;20214;-78
2021/12/20 04:56:11;;;;;;;10.70;5.40;;;;;6.20;102234.00;;;;10455112;28;20199;-78
2021/12/20 05:01:13;;;;;;;10.53;4.77;;;;;6.20;102230.00;;;;10456391;28;20244;-78
2021/12/20 05:06:15;;;;;;;11.07;5.40;;;;;6.10;102232.00;;;;10458463;28;20267;-78
2021/12/20 05:11:17;;;;;;;14.50;5.70;;;;;6.10;102235.00;;;;10463674;28;20816;-78
2021/12/20 05:16:20;;;;;;;13.47;5.47;;;;;6.10;102239.00;;;;10438625;28;20187;-78
2021/12/20 05:21:22;;;;;;;13.03;5.10;;;;;6.10;102230.00;;;;10520204;28;20278;-78
2021/12/20 05:26:24;;;;;;;13.43;5.07;;;;;6.10;102236.00;;;;10469917;28;20194;-78
2021/12/20 05:31:26;;;;;;;19.13;4.80;;;;;6.10;102236.00;;;;10486417;28;20206;-78
2021/12/20 05:36:27;;;;;;;10.90;4.77;;;;;6.10;102224.00;;;;10453306;28;20267;-78
2021/12/20 05:41:29;;;;;;;17.70;4.13;;;;;6.00;102225.00;;;;10484234;28;20263;-78
2021/12/20 05:46:32;;;;;;;13.47;4.70;;;;;6.00;102242.00;;;;10483995;28;20194;-78
2021/12/20 05:51:34;;;;;;;8.47;4.10;;;;;6.00;102241.00;;;;10519207;28;20232;-78
2021/12/20 05:56:36;;;;;;;15.57;4.17;;;;;6.00;102249.00;;;;10485478;28;20243;-78
2021/12/20 06:01:38;;;;;;;12.93;4.03;;;;;6.00;102255.00;;;;10477048;28;20201;-77
2021/12/20 06:06:40;;;;;;;11.47;3.77;;;;;6.00;102252.00;;;;10467581;28;20604;-78
2021/12/20 06:11:43;;;;;;;16.93;4.23;;;;;5.90;102249.00;;;;10455038;28;20228;-78
2021/12/20 06:16:45;;;;;;;12.93;3.23;;;;;5.90;102247.00;;;;10502032;28;20526;-78
2021/12/20 06:21:51;;;;;;;14.37;4.20;;;;;5.90;102248.00;;;;10459211;28;20213;-77
2021/12/20 06:26:53;;;;;;;18.50;3.93;;;;;5.90;102240.00;;;;10477117;28;20189;-78
2021/12/20 06:31:55;;;;;;;17.00;3.70;;;;;5.90;102250.00;;;;10483900;28;20627;-77
2021/12/20 06:36:57;;;;;;;14.43;3.90;;;;;5.90;102246.00;;;;10467090;28;20286;-77
2021/12/20 06:41:59;;;;;;;12.43;4.53;;;;;5.90;102246.00;;;;10500100;28;20198;-78
2021/12/20 06:47:01;;;;;;;13.23;4.17;;;;;5.90;102244.00;;;;10483000;28;20542;-78
2021/12/20 06:52:04;;;;;;;12.53;4.77;;;;;5.90;102247.00;;;;10483317;28;20680;-78
2021/12/20 06:57:06;;;;;;;12.07;3.73;;;;;5.90;102245.00;;;;10516607;28;20653;-77
2021/12/20 07:02:08;;;;;;;12.37;4.30;;;;;5.90;102248.00;;;;10482342;28;20197;-78
2021/12/20 07:07:10;;;;;;;10.60;3.57;;;;;5.90;102246.00;;;;10449461;28;20595;-78
2021/12/20 07:12:12;;;;;;;13.23;3.77;;;;;5.90;102250.00;;;;10523945;28;20205;-78
2021/12/20 07:17:13;;;;;;;9.80;3.43;;;;;5.90;102252.00;;;;10506524;28;20234;-78
2021/12/20 07:22:15;;;;;;;20.57;5.20;;;;;5.90;102256.00;;;;10490568;28;20189;-78
2021/12/20 07:27:18;;;;;;;14.80;3.40;;;;;5.90;102253.00;;;;10490501;28;20222;-78
2021/12/20 07:32:20;;;;;;;14.13;3.13;;;;;5.90;102264.00;;;;10487904;28;20209;-78
2021/12/20 07:37:25;;;;;;;15.87;4.17;;;;;5.90;102263.00;;;;10467001;28;20209;-78
2021/12/20 07:42:27;;;;;;;13.93;2.70;;;;;5.90;102265.00;;;;10489585;28;20245;-78
2021/12/20 07:47:33;;;;;;;14.67;3.00;;;;;5.90;102263.00;;;;10473744;28;20649;-78
2021/12/20 07:52:35;;;;;;;17.70;4.17;;;;;5.90;102260.00;;;;10472906;28;20209;-78
2021/12/20 07:57:37;;;;;;;20.43;3.20;;;;;5.90;102272.00;;;;10490011;28;20599;-78
2021/12/20 08:02:40;;;;;;;13.73;3.70;;;;;5.90;102272.00;;;;10506099;28;20207;-78
2021/12/20 08:07:45;;;;;;;16.23;3.50;;;;;5.90;102274.00;;;;10481218;28;20277;-78
2021/12/20 08:12:48;;;;;;;18.50;3.00;;;;;5.90;102272.00;;;;10463900;28;20216;-78
2021/12/20 08:17:50;;;;;;;11.23;2.90;;;;;6.00;102271.00;;;;10514369;28;20235;-78
2021/12/20 08:22:52;;;;;;;23.57;3.70;;;;;6.00;102280.00;;;;10497249;28;20193;-78
2021/12/20 08:27:54;;;;;;;13.80;2.70;;;;;6.00;102283.00;;;;10478485;28;20229;-78
2021/12/20 08:32:56;;;;;;;19.40;3.43;;;;;6.10;102285.00;;;;10482753;28;20225;-78
2021/12/20 08:37:58;;;;;;;18.67;3.90;;;;;6.20;102286.00;;;;10470460;28;20208;-77
2021/12/20 08:43:01;;;;;;;17.73;2.90;;;;;6.20;102285.00;;;;10451475;28;20259;-77
2021/12/20 08:48:03;;;;;;;15.10;3.20;;;;;6.30;102290.00;;;;10512500;28;20193;-78
2021/12/20 08:53:06;;;;;;;20.20;3.20;;;;;6.40;102298.00;;;;10459947;28;20207;-78
2021/12/20 08:58:08;;;;;;;11.47;3.13;;;;;6.50;102278.00;;;;10462542;28;20201;-77
2021/12/20 09:03:10;;;;;;;18.67;3.73;;;;;6.60;102288.00;;;;10520459;28;20202;-77
2021/12/20 09:08:15;;;;;;;16.97;3.00;;;;;6.60;102304.00;;;;10486521;28;20201;-77
2021/12/20 09:13:17;;;;;;;20.20;3.30;;;;;6.70;102298.00;;;;10481151;28;20218;-77
2021/12/20 09:18:19;;;;;;;13.47;3.57;;;;;6.80;102307.00;;;;10444776;28;20185;-77
2021/12/20 09:23:29;;;;;;;11.03;3.07;;;;;6.90;102302.00;;;;10464494;28;20201;-77
2021/12/20 09:28:31;;;;;;;16.70;3.57;;;;;7.00;102295.00;;;;10485006;28;20194;-77
2021/12/20 09:33:36;;;;;;;16.93;3.20;;;;;7.10;102299.00;;;;10485986;28;20315;-78
2021/12/20 09:38:40;;;;;;;17.30;3.90;;;;;7.10;102303.00;;;;10468893;28;20205;-78
2021/12/20 09:43:44;;;;;;;18.43;3.90;;;;;7.20;102307.00;;;;10484213;28;20197;-78
2021/12/20 09:48:49;;;;;;;16.83;3.97;;;;;7.30;102315.00;;;;10468381;28;20209;-77
2021/12/20 09:53:54;;;;;;;20.17;3.13;;;;;7.30;102314.00;;;;10502832;28;20194;-77
2021/12/20 09:58:58;;;;;;;13.80;2.93;;;;;7.30;102319.00;;;;10484939;28;20215;-78
2021/12/20 10:04:03;;;;;;;19.10;3.93;;;;;7.40;102321.00;;;;10483900;28;20260;-77
2021/12/20 10:09:15;;;;;;;13.43;3.30;;;;;7.40;102312.00;;;;10485178;28;20306;-78
2021/12/20 10:14:17;;;;;;;13.10;3.00;;;;;7.50;102312.00;;;;10480500;28;20185;-78
2021/12/20 10:19:34;;;;;;;17.87;3.33;;;;;7.50;102322.00;;;;10483751;28;20185;-78
2021/12/20 10:24:40;;;;;;;23.37;4.73;;;;;7.50;102314.00;;;;10484622;28;20217;-77
2021/12/20 10:29:42;;;;;;;22.03;4.87;;;;;7.50;102314.00;;;;10450569;28;20271;-77
2021/12/20 10:34:45;;;;;;;15.13;3.40;;;;;7.50;102312.00;;;;10501206;28;20213;-77
2021/12/20 10:39:48;;;;;;;14.47;3.50;;;;;7.60;102308.00;;;;10443589;28;20205;-76
2021/12/20 10:45:14;;;;;;;24.63;3.70;;;;;7.60;102316.00;;;;10463297;28;20296;-77
2021/12/20 10:50:31;;;;;;;16.30;4.30;;;;;7.60;102322.00;;;;10475194;28;20222;-77
2021/12/20 10:55:39;;;;;;;17.63;3.73;;;;;7.60;102319.00;;;;10481010;28;20194;-77
2021/12/20 11:00:41;;;;;;;17.53;4.77;;;;;7.60;102329.00;;;;10481409;28;20186;-77
2021/12/20 11:06:13;;;;;;;15.70;3.67;;;;;7.70;102332.00;;;;10481166;28;20645;-77
2021/12/20 11:11:11;;;;;;;17.20;4.70;;;;;7.70;102328.00;;;;10479590;28;20209;-78
2021/12/20 11:16:25;;;;;;;20.80;4.60;;;;;7.70;102327.00;;;;10462880;28;20201;-77
2021/12/20 11:21:27;;;;;;;22.03;3.83;;;;;7.70;102323.00;;;;10479007;28;20235;-77
2021/12/20 11:26:29;;;;;;;18.93;4.17;;;;;7.80;102319.00;;;;10480753;28;20197;-77
2021/12/20 11:31:32;;;;;;;16.37;3.37;;;;;7.80;102318.00;;;;10440506;28;20296;-77
2021/12/20 11:36:34;;;;;;;15.73;3.43;;;;;7.80;102308.00;;;;10473135;28;20213;-77
2021/12/20 11:41:38;;;;;;;14.27;2.80;;;;;7.90;102304.00;;;;10455946;28;20202;-77
2021/12/20 11:46:52;;;;;;;17.63;3.70;;;;;8.00;102305.00;;;;10489940;28;20197;-77
2021/12/20 11:51:57;;;;;;;11.90;2.60;;;;;8.00;102304.00;;;;10501033;28;20199;-77
2021/12/20 11:56:59;;;;;;;10.87;1.90;;;;;8.00;102300.00;;;;10462346;28;20228;-77
2021/12/20 12:02:19;;;;;;;8.60;2.43;;;;;8.00;102291.00;;;;10463900;28;20197;-77
2021/12/20 12:07:23;;;;;;;6.93;3.10;;;;;7.90;102284.00;;;;10446951;28;20228;-77
2021/12/20 12:12:26;;;;;;;16.43;3.93;;;;;7.90;102280.00;;;;10479583;28;20235;-77
2021/12/20 12:17:56;;;;;;;13.27;2.50;;;;;7.90;102275.00;;;;10482348;28;20648;-77
2021/12/20 12:23:10;;;;;;;16.27;3.40;;;;;7.90;102271.00;;;;10480155;28;20198;-77
2021/12/20 12:28:13;;;;;;;12.60;2.60;;;;;7.90;102268.00;;;;10468249;28;20201;-77
2021/12/20 12:33:16;;;;;;;16.37;2.53;;;;;7.80;102267.00;;;;10487920;28;20217;-77
2021/12/20 12:38:30;;;;;;;11.07;2.53;;;;;7.60;102273.00;;;;10509446;28;20205;-77
2021/12/20 12:43:46;;;;;;;8.63;2.20;;;;;7.60;102272.00;;;;10499311;28;20194;-77
2021/12/20 12:48:49;;;;;;;10.50;2.63;;;;;7.60;102258.00;;;;10476626;28;20580;-77
2021/12/20 12:53:54;;;;;;;9.27;2.87;;;;;7.60;102247.00;;;;10485686;28;20207;-77
2021/12/20 12:59:11;;;;;;;12.60;2.77;;;;;7.60;102255.00;;;;10455653;28;20557;-77
2021/12/20 13:04:14;;;;;;;11.47;3.30;;;;;7.50;102245.00;;;;10485666;28;20641;-77
2021/12/20 13:09:31;;;;;;;13.50;3.23;;;;;7.50;102240.00;;;;10494569;28;20286;-77
2021/12/20 13:14:55;;;;;;;15.57;4.30;;;;;7.40;102241.00;;;;10486104;28;20193;-77
2021/12/20 13:25:53;;;;;;;11.13;3.80;;;;;7.50;102233.00;;;;10455105;28;20198;-77
2021/12/20 13:30:57;;;;;;;9.20;2.33;;;;;7.50;102235.00;;;;10485922;28;20208;-77
2021/12/20 13:36:11;;;;;;;9.27;2.93;;;;;7.40;102236.00;;;;10483573;28;20206;-77
2021/12/20 13:41:18;;;;;;;9.03;2.67;;;;;7.40;102240.00;;;;10482355;28;20197;-77
2021/12/20 13:46:48;;;;;;;7.43;2.20;;;;;7.30;102244.00;;;;10483047;28;20244;-78
2021/12/20 13:51:55;;;;;;;10.97;3.70;;;;;7.20;102239.00;;;;10472819;28;20677;-77
2021/12/20 13:57:14;;;;;;;9.57;2.97;;;;;7.10;102239.00;;;;10512686;28;20193;-77
2021/12/20 14:02:19;;;;;;;13.47;3.90;;;;;7.10;102238.00;;;;10469374;28;20196;-77
2021/12/20 14:07:31;;;;;;;10.83;3.10;;;;;7.00;102241.00;;;;10486447;28;20284;-78
2021/12/20 14:12:52;;;;;;;10.60;3.43;;;;;6.90;102246.00;;;;10526884;28;20239;-77
2021/12/20 14:18:02;;;;;;;11.30;3.73;;;;;6.90;102245.00;;;;10458318;28;20274;-77
2021/12/20 14:23:07;;;;;;;14.80;3.90;;;;;6.90;102232.00;;;;10490483;28;20243;-77
2021/12/20 14:28:13;;;;;;;16.87;3.87;;;;;6.80;102230.00;;;;10442234;28;20229;-77
2021/12/20 14:33:21;;;;;;;10.73;3.07;;;;;6.80;102235.00;;;;10501229;28;20213;-77
2021/12/20 14:38:33;;;;;;;12.93;4.07;;;;;6.70;102235.00;;;;10494880;28;20207;-78
2021/12/20 14:43:35;;;;;;;14.23;3.83;;;;;6.70;102226.00;;;;10486705;28;20193;-78
2021/12/20 14:48:42;;;;;;;12.70;3.93;;;;;6.60;102224.00;;;;10497354;28;20224;-77
2021/12/20 14:53:45;;;;;;;13.10;3.90;;;;;6.50;102230.00;;;;10478609;28;20201;-77
2021/12/20 14:58:46;;;;;;;11.77;4.20;;;;;6.40;102232.00;;;;10484036;28;20245;-77
2021/12/20 15:03:50;;;;;;;16.20;4.00;;;;;6.40;102235.00;;;;10482527;28;20731;-77
2021/12/20 15:08:53;;;;;;;14.37;3.87;;;;;6.30;102236.00;;;;10443790;28;20197;-77
2021/12/20 15:13:54;;;;;;;15.63;4.80;;;;;6.30;102239.00;;;;10493295;28;20608;-77
2021/12/20 15:18:57;;;;;;;12.00;3.40;;;;;6.20;102242.00;;;;10482057;28;20695;-77
2021/12/20 15:23:59;;;;;;;10.93;3.60;;;;;6.10;102229.00;;;;10497946;28;20190;-78
2021/12/20 15:29:03;;;;;;;12.40;4.33;;;;;6.10;102228.00;;;;10481787;28;20193;-77
2021/12/20 15:34:06;;;;;;;14.43;5.03;;;;;6.10;102221.00;;;;10474307;28;20217;-77
2021/12/20 15:39:09;;;;;;;9.43;3.50;;;;;6.10;102218.00;;;;10480305;28;20212;-78
2021/12/20 15:44:11;;;;;;;15.63;4.40;;;;;6.00;102215.00;;;;10481766;28;20189;-78
2021/12/20 15:49:12;;;;;;;12.73;4.70;;;;;6.00;102222.00;;;;10480251;28;20243;-77
2021/12/20 15:54:15;;;;;;;8.93;4.03;;;;;5.90;102223.00;;;;10447703;28;20701;-77
2021/12/20 15:59:17;;;;;;;13.23;3.23;;;;;5.80;102227.00;;;;10475766;28;20617;-77
2021/12/20 16:04:19;;;;;;;13.17;3.30;;;;;5.80;102223.00;;;;10478908;28;20216;-77
2021/12/20 16:09:21;;;;;;;12.80;2.70;;;;;5.80;102217.00;;;;10446039;28;20259;-77
2021/12/20 16:14:23;;;;;;;12.93;3.70;;;;;5.80;102219.00;;;;10472176;28;20190;-78
2021/12/20 16:19:25;;;;;;;13.10;3.23;;;;;5.70;102231.00;;;;10501372;28;20239;-77
2021/12/20 16:24:27;;;;;;;15.80;3.30;;;;;5.70;102226.00;;;;10464058;28;20192;-77
2021/12/20 16:29:29;;;;;;;13.23;3.67;;;;;5.70;102223.00;;;;10445563;28;20358;-77
2021/12/20 16:34:31;;;;;;;11.50;4.27;;;;;5.70;102219.00;;;;10479265;28;20351;-78
2021/12/20 16:39:32;;;;;;;12.37;3.77;;;;;5.60;102233.00;;;;10495597;28;20267;-78
2021/12/20 16:44:38;;;;;;;10.33;3.80;;;;;5.60;102222.00;;;;10479849;28;20216;-78
2021/12/20 16:49:39;;;;;;;9.00;2.77;;;;;5.60;102217.00;;;;10443023;28;20664;-78
2021/12/20 16:54:46;;;;;;;17.13;3.70;;;;;5.60;102213.00;;;;10463100;28;20284;-79
2021/12/20 16:59:48;;;;;;;16.80;3.67;;;;;5.60;102228.00;;;;10480179;28;20202;-78
2021/12/20 17:05:08;;;;;;;12.07;3.77;;;;;5.60;102229.00;;;;10496397;28;20190;-78
2021/12/20 17:10:10;;;;;;;8.27;4.10;;;;;5.60;102217.00;;;;10463781;28;20259;-78
2021/12/20 17:15:12;;;;;;;15.83;4.60;;;;;5.50;102223.00;;;;10452125;28;20202;-79
2021/12/20 17:20:14;;;;;;;10.43;4.30;;;;;5.40;102223.00;;;;10483100;28;20247;-78
2021/12/20 17:25:16;;;;;;;11.90;4.27;;;;;5.40;102232.00;;;;10488168;28;20262;-78
2021/12/20 17:30:18;;;;;;;13.67;4.93;;;;;5.20;102219.00;;;;10487369;28;20232;-78
2021/12/20 17:35:20;;;;;;;14.30;5.23;;;;;5.10;102218.00;;;;10501001;28;20229;-79
2021/12/20 17:40:22;;;;;;;14.27;6.30;;;;;5.00;102223.00;;;;10469041;28;20251;-78
2021/12/20 17:45:25;;;;;;;19.57;6.17;;;;;4.90;102221.00;;;;10486670;28;20292;-79
2021/12/20 17:50:28;;;;;;;16.77;7.07;;;;;4.70;102224.00;;;;10507593;28;20229;-78
2021/12/20 17:55:31;;;;;;;22.87;7.90;;;;;4.60;102218.00;;;;10445713;28;21150;-78
2021/12/20 18:00:33;;;;;;;16.07;7.87;;;;;4.50;102222.00;;;;10502427;28;20182;-78
2021/12/20 18:05:35;;;;;;;23.93;9.57;;;;;4.30;102229.00;;;;10469038;28;20621;-78
2021/12/20 18:10:39;;;;;;;19.77;10.13;;;;;4.20;102224.00;;;;10527693;28;20201;-78
2021/12/20 18:15:41;;;;;;;20.93;9.50;;;;;4.20;102237.00;;;;10493797;28;20226;-77
2021/12/20 18:20:43;;;;;;;22.80;9.20;;;;;4.10;102232.00;;;;10494208;28;20552;-78
2021/12/20 18:25:45;;;;;;;18.63;9.00;;;;;4.10;102227.00;;;;10487898;28;20248;-78
2021/12/20 18:30:47;;;;;;;32.20;13.73;;;;;4.10;102230.00;;;;10485416;28;20202;-78
2021/12/20 18:35:49;;;;;;;31.27;13.20;;;;;4.00;102237.00;;;;10502021;28;20231;-78
2021/12/20 18:40:51;;;;;;;29.53;12.70;;;;;4.00;102238.00;;;;10478633;28;20201;-78
2021/12/20 18:45:54;;;;;;;25.43;13.50;;;;;3.90;102236.00;;;;10484198;28;20201;-78
2021/12/20 18:51:02;;;;;;;26.57;11.43;;;;;3.90;102242.00;;;;10443894;28;20217;-78
2021/12/20 18:56:04;;;;;;;20.50;10.27;;;;;3.90;102238.00;;;;10425829;28;20224;-78
2021/12/20 19:01:06;;;;;;;28.03;12.87;;;;;3.80;102247.00;;;;10442444;28;20186;-78
2021/12/20 19:06:08;;;;;;;32.80;13.33;;;;;3.80;102238.00;;;;10441867;28;20245;-78
2021/12/20 19:11:18;;;;;;;25.33;13.47;;;;;3.80;102248.00;;;;10509547;28;20300;-78
2021/12/20 19:16:20;;;;;;;27.80;14.13;;;;;3.80;102237.00;;;;10474762;28;20221;-78
2021/12/20 19:21:22;;;;;;;30.87;15.60;;;;;3.70;102243.00;;;;10507002;28;20243;-78
2021/12/20 19:26:24;;;;;;;39.63;17.33;;;;;3.60;102238.00;;;;10525255;28;20189;-78
2021/12/20 19:31:31;;;;;;;44.60;22.30;;;;;3.40;102236.00;;;;10483879;28;20649;-78
2021/12/20 19:36:34;;;;;;;31.70;16.13;;;;;3.20;102226.00;;;;10497648;28;20205;-78
2021/12/20 19:41:39;;;;;;;20.20;10.40;;;;;3.10;102235.00;;;;10481529;28;20251;-78
2021/12/20 19:46:42;;;;;;;26.30;10.90;;;;;2.90;102236.00;;;;10482225;28;20204;-78
2021/12/20 19:51:44;;;;;;;23.07;9.70;;;;;2.80;102247.00;;;;10482042;28;20259;-78
2021/12/20 19:56:46;;;;;;;21.00;10.73;;;;;2.60;102252.00;;;;10498185;28;20224;-78
2021/12/20 20:01:51;;;;;;;23.40;11.93;;;;;2.40;102252.00;;;;10481148;28;20243;-78
2021/12/20 20:06:55;;;;;;;29.37;13.37;;;;;2.20;102254.00;;;;10464147;28;20227;-78
2021/12/20 20:11:57;;;;;;;32.03;14.73;;;;;2.00;102247.00;;;;10481152;28;20205;-78
2021/12/20 20:17:04;;;;;;;31.93;15.80;;;;;1.90;102265.00;;;;10481142;28;20266;-79
2021/12/20 20:22:10;;;;;;;32.70;15.20;;;;;1.70;102252.00;;;;10497921;28;20188;-78
2021/12/20 20:27:13;;;;;;;27.10;14.97;;;;;1.60;102247.00;;;;10481049;28;20232;-78
2021/12/20 20:32:15;;;;;;;30.90;15.30;;;;;1.50;102243.00;;;;10497152;28;20230;-78
2021/12/20 20:37:17;;;;;;;29.47;14.00;;;;;1.40;102245.00;;;;10481308;28;20631;-78
2021/12/20 20:42:21;;;;;;;30.67;15.07;;;;;1.40;102254.00;;;;10496960;28;20197;-78
2021/12/20 20:47:24;;;;;;;28.20;16.57;;;;;1.20;102248.00;;;;10466086;28;20201;-78
2021/12/20 20:52:26;;;;;;;34.97;16.60;;;;;1.10;102236.00;;;;10488302;28;20606;-77
2021/12/20 20:57:28;;;;;;;31.17;17.10;;;;;1.00;102247.00;;;;10474085;28;20231;-78
2021/12/20 21:02:30;;;;;;;39.97;18.43;;;;;0.90;102249.00;;;;10471383;28;20209;-78
2021/12/20 21:07:32;;;;;;;27.13;12.43;;;;;0.90;102235.00;;;;10455469;28;20292;-78
2021/12/20 21:12:34;;;;;;;26.50;12.13;;;;;0.80;102230.00;;;;10463338;28;20213;-78
2021/12/20 21:17:36;;;;;;;25.40;13.53;;;;;0.70;102228.00;;;;10466529;28;20193;-78
2021/12/20 21:22:39;;;;;;;27.80;16.13;;;;;0.70;102224.00;;;;10487395;28;20251;-78
2021/12/20 21:27:44;;;;;;;30.43;14.70;;;;;0.60;102222.00;;;;10486570;28;20251;-78
2021/12/20 21:33:13;;;;;;;28.50;15.43;;;;;0.50;102224.00;;;;10486479;28;20235;-78
2021/12/20 21:38:25;;;;;;;35.87;15.30;;;;;0.50;102225.00;;;;10511656;28;20188;-78
2021/12/20 21:43:27;;;;;;;30.97;15.90;;;;;0.40;102219.00;;;;10457343;28;20727;-78
2021/12/20 21:48:29;;;;;;;31.53;16.00;;;;;0.30;102221.00;;;;10444931;28;20226;-78
2021/12/20 21:53:31;;;;;;;42.27;16.10;;;;;0.20;102220.00;;;;10461709;28;20689;-79
2021/12/20 21:58:34;;;;;;;35.67;17.63;;;;;0.10;102212.00;;;;10482043;28;20718;-78
2021/12/20 22:03:36;;;;;;;33.43;18.60;;;;;0.10;102208.00;;;;10461713;28;20650;-78
2021/12/20 22:08:38;;;;;;;28.30;17.00;;;;;0.10;102209.00;;;;10485543;28;20265;-78
2021/12/20 22:13:58;;;;;;;35.10;16.97;;;;;0.00;102210.00;;;;10527776;28;20224;-78
2021/12/20 22:19:02;;;;;;;30.40;16.47;;;;;0.00;102197.00;;;;10543556;28;20307;-78
2021/12/20 22:24:04;;;;;;;33.30;14.80;;;;;-0.10;102190.00;;;;10526934;28;20219;-78
2021/12/20 22:29:07;;;;;;;30.40;15.73;;;;;-0.10;102191.00;;;;10493195;28;20200;-78
2021/12/20 22:34:09;;;;;;;30.40;14.97;;;;;-0.20;102191.00;;;;10509955;28;20244;-78
2021/12/20 22:39:11;;;;;;;34.67;15.37;;;;;-0.30;102196.00;;;;10518152;28;20262;-78
2021/12/20 22:44:13;;;;;;;29.93;14.53;;;;;-0.30;102189.00;;;;10525704;28;20283;-78
2021/12/20 22:49:16;;;;;;;30.27;14.13;;;;;-0.40;102191.00;;;;10525629;28;20206;-78
2021/12/20 22:54:18;;;;;;;26.30;13.50;;;;;-0.40;102192.00;;;;10492530;28;20650;-78
2021/12/20 22:59:21;;;;;;;29.63;13.60;;;;;-0.50;102201.00;;;;10492635;28;20220;-78
2021/12/20 23:04:23;;;;;;;34.53;15.67;;;;;-0.50;102190.00;;;;10460118;28;20665;-78
2021/12/20 23:09:26;;;;;;;39.77;18.67;;;;;-0.60;102198.00;;;;10502317;28;20238;-78
2021/12/20 23:14:27;;;;;;;25.23;15.03;;;;;-0.60;102185.00;;;;10464926;28;20201;-78
2021/12/20 23:19:29;;;;;;;31.83;16.67;;;;;-0.70;102183.00;;;;10466526;28;20250;-78
2021/12/20 23:24:32;;;;;;;29.97;15.33;;;;;-0.70;102174.00;;;;10482854;28;20184;-78
2021/12/20 23:29:34;;;;;;;31.73;16.30;;;;;-0.80;102175.00;;;;10482720;28;20243;-78
2021/12/20 23:34:35;;;;;;;33.67;16.90;;;;;-0.90;102169.00;;;;10481960;28;20221;-78
2021/12/20 23:39:42;;;;;;;23.17;13.93;;;;;-0.90;102185.00;;;;10450551;28;20250;-79
2021/12/20 23:44:43;;;;;;;31.67;14.73;;;;;-0.90;102177.00;;;;10463876;28;20280;-78
2021/12/20 23:49:45;;;;;;;43.40;17.03;;;;;-1.00;102171.00;;;;10464240;28;20276;-78
2021/12/20 23:54:47;;;;;;;24.27;15.07;;;;;-1.00;102166.00;;;;10432318;28;20232;-78
2021/12/20 23:59:49;;;;;;;28.10;14.90;;;;;-1.10;102162.00;;;;10481541;28;20671;-78
